createdAt,value
2023-02-11T00:00:41.566Z,21.40
2023-02-11T00:03:08.219Z,20.27
2023-02-11T00:05:35.358Z,20.63
2023-02-11T00:08:01.873Z,20.63
2023-02-11T00:10:28.418Z,20.43
2023-02-11T00:12:55.820Z,20.77
2023-02-11T00:15:22.424Z,19.87
2023-02-11T00:17:48.926Z,20.00
2023-02-11T00:20:17.810Z,18.47
2023-02-11T00:22:44.514Z,19.30
2023-02-11T00:25:10.990Z,19.63
2023-02-11T00:27:37.841Z,19.30
2023-02-11T00:30:06.445Z,19.10
2023-02-11T00:32:33.362Z,18.70
2023-02-11T00:35:00.478Z,19.33
2023-02-11T00:37:27.296Z,19.73
2023-02-11T00:39:53.889Z,17.83
2023-02-11T00:42:20.514Z,18.60
2023-02-11T00:44:49.542Z,17.60
2023-02-11T00:47:16.060Z,18.33
2023-02-11T00:49:42.566Z,18.17
2023-02-11T00:52:09.058Z,17.53
2023-02-11T00:54:35.607Z,17.13
2023-02-11T00:57:02.162Z,18.20
2023-02-11T00:59:28.758Z,17.47
2023-02-11T01:01:55.623Z,18.07
2023-02-11T01:04:22.263Z,18.17
2023-02-11T01:06:48.772Z,16.70
2023-02-11T01:09:15.283Z,17.20
2023-02-11T01:11:42.033Z,17.20
2023-02-11T01:14:09.142Z,17.07
2023-02-11T01:16:35.705Z,16.47
2023-02-11T01:19:02.467Z,16.03
2023-02-11T01:21:28.969Z,17.13
2023-02-11T01:23:55.569Z,16.87
2023-02-11T01:26:22.154Z,16.37
2023-02-11T01:28:48.674Z,17.37
2023-02-11T01:31:15.416Z,17.50
2023-02-11T01:33:42.300Z,17.20
2023-02-11T01:36:12.074Z,16.63
2023-02-11T01:38:41.467Z,16.30
2023-02-11T01:41:12.155Z,16.47
2023-02-11T01:43:42.497Z,16.27
2023-02-11T01:46:31.194Z,15.97
2023-02-11T01:49:11.301Z,17.77
2023-02-11T01:51:43.994Z,16.53
2023-02-11T01:54:33.513Z,17.67
2023-02-11T01:57:21.027Z,16.37
2023-02-11T02:00:08.857Z,16.60
2023-02-11T02:02:50.370Z,17.73
2023-02-11T02:05:29.188Z,16.00
2023-02-11T02:08:18.998Z,16.50
2023-02-11T02:10:53.980Z,15.33
2023-02-11T02:13:20.666Z,15.73
2023-02-11T02:15:59.351Z,16.73
2023-02-11T02:18:41.027Z,15.80
2023-02-11T02:21:13.636Z,16.23
2023-02-11T02:24:09.516Z,16.20
2023-02-11T02:26:38.986Z,14.40
2023-02-11T02:29:28.436Z,14.33
2023-02-11T02:32:31.972Z,15.57
2023-02-11T02:35:03.008Z,14.67
2023-02-11T02:38:08.694Z,14.13
2023-02-11T02:40:44.060Z,14.07
2023-02-11T02:43:12.114Z,14.43
2023-02-11T02:45:38.685Z,14.03
2023-02-11T02:48:05.356Z,13.50
2023-02-11T02:50:37.067Z,14.30
2023-02-11T02:53:37.383Z,13.73
2023-02-11T02:56:17.341Z,14.47
2023-02-11T02:58:58.954Z,13.60
2023-02-11T03:01:57.543Z,14.13
2023-02-11T03:04:50.430Z,13.73
2023-02-11T03:07:52.566Z,13.33
2023-02-11T03:10:25.205Z,13.63
2023-02-11T03:12:54.506Z,14.13
2023-02-11T03:15:23.470Z,13.97
2023-02-11T03:17:54.160Z,14.13
2023-02-11T03:20:23.029Z,15.03
2023-02-11T03:23:02.310Z,14.53
2023-02-11T03:25:34.091Z,15.00
2023-02-11T03:28:13.589Z,13.93
2023-02-11T03:30:56.311Z,13.90
2023-02-11T03:33:29.229Z,14.70
2023-02-11T03:36:02.793Z,14.33
2023-02-11T03:38:37.922Z,14.53
2023-02-11T03:41:08.113Z,15.00
2023-02-11T03:43:42.291Z,14.67
2023-02-11T03:46:10.874Z,15.30
2023-02-11T03:49:02.104Z,14.63
2023-02-11T03:51:31.421Z,14.37
2023-02-11T03:54:02.053Z,13.70
2023-02-11T03:56:33.055Z,14.10
2023-02-11T03:58:59.733Z,13.27
2023-02-11T04:01:26.679Z,14.73
2023-02-11T04:03:53.227Z,15.43
2023-02-11T04:06:19.721Z,14.83
2023-02-11T04:08:46.262Z,15.23
2023-02-11T04:11:12.971Z,14.57
2023-02-11T04:13:39.471Z,15.77
2023-02-11T04:16:06.211Z,16.87
2023-02-11T04:18:32.872Z,15.97
2023-02-11T04:20:59.322Z,16.00
2023-02-11T04:23:26.081Z,15.80
2023-02-11T04:25:52.790Z,15.57
2023-02-11T04:28:19.453Z,16.27
2023-02-11T04:30:46.056Z,16.27
2023-02-11T04:33:12.597Z,15.20
2023-02-11T04:35:39.241Z,16.53
2023-02-11T04:38:05.749Z,15.97
2023-02-11T04:40:34.839Z,15.63
2023-02-11T04:43:01.358Z,15.93
2023-02-11T04:45:27.849Z,17.10
2023-02-11T04:47:54.346Z,16.50
2023-02-11T04:50:20.936Z,16.17
2023-02-11T04:52:47.696Z,16.63
2023-02-11T04:55:14.258Z,16.93
2023-02-11T04:57:40.793Z,17.10
2023-02-11T05:00:08.323Z,17.23
2023-02-11T05:02:34.791Z,17.97
2023-02-11T05:05:01.655Z,18.07
2023-02-11T05:07:30.845Z,18.27
2023-02-11T05:09:57.359Z,18.53
2023-02-11T05:12:23.988Z,19.17
2023-02-11T05:14:50.483Z,19.10
2023-02-11T05:17:17.132Z,19.27
2023-02-11T05:19:44.075Z,19.53
2023-02-11T05:22:10.569Z,19.13
2023-02-11T05:24:37.096Z,20.80
2023-02-11T05:27:03.802Z,20.60
2023-02-11T05:29:30.382Z,20.27
2023-02-11T05:32:00.222Z,18.67
2023-02-11T05:34:26.868Z,20.10
2023-02-11T05:36:53.711Z,19.90
2023-02-11T05:39:20.233Z,19.90
2023-02-11T05:41:46.737Z,21.23
2023-02-11T05:44:13.493Z,20.93
2023-02-11T05:46:40.088Z,20.10
2023-02-11T05:49:08.375Z,21.20
2023-02-11T05:51:34.909Z,21.00
2023-02-11T05:54:01.464Z,20.87
2023-02-11T05:56:28.547Z,19.17
2023-02-11T05:58:55.110Z,19.47
2023-02-11T06:01:21.713Z,19.77
2023-02-11T06:03:50.419Z,20.00
2023-02-11T06:06:17.566Z,19.90
2023-02-11T06:08:44.114Z,20.43
2023-02-11T06:11:10.623Z,20.20
2023-02-11T06:13:39.715Z,18.60
2023-02-11T06:16:06.413Z,19.20
2023-02-11T06:18:33.745Z,19.10
2023-02-11T06:21:01.181Z,18.97
2023-02-11T06:23:30.248Z,19.90
2023-02-11T06:26:02.246Z,18.83
2023-02-11T06:28:31.260Z,19.07
2023-02-11T06:30:59.844Z,19.60
2023-02-11T06:33:26.360Z,18.80
2023-02-11T06:35:55.932Z,19.70
2023-02-11T06:38:22.654Z,18.60
2023-02-11T06:40:49.832Z,20.67
2023-02-11T06:43:17.181Z,20.37
2023-02-11T06:45:44.200Z,19.40
2023-02-11T06:48:12.942Z,18.90
2023-02-11T06:50:39.531Z,19.97
2023-02-11T06:53:06.093Z,18.87
2023-02-11T06:55:35.327Z,19.63
2023-02-11T06:58:01.841Z,18.87
2023-02-11T07:00:29.862Z,19.83
2023-02-11T07:02:56.594Z,19.07
2023-02-11T07:05:23.200Z,19.17
2023-02-11T07:07:49.798Z,19.53
2023-02-11T07:10:16.410Z,18.13
2023-02-11T07:12:42.929Z,17.93
2023-02-11T07:15:09.668Z,18.90
2023-02-11T07:17:36.718Z,18.53
2023-02-11T07:20:03.883Z,19.37
2023-02-11T07:22:30.737Z,19.67
2023-02-11T07:24:57.202Z,18.90
2023-02-11T07:27:23.780Z,19.37
2023-02-11T07:29:50.738Z,19.10
2023-02-11T07:32:17.353Z,20.43
2023-02-11T07:34:44.419Z,18.83
2023-02-11T07:37:11.023Z,19.73
2023-02-11T07:39:37.787Z,19.23
2023-02-11T07:42:04.733Z,18.50
2023-02-11T08:07:22.002Z,20.60
2023-02-11T08:09:48.572Z,21.50
2023-02-11T08:12:15.104Z,22.03
2023-02-11T08:14:41.760Z,21.00
2023-02-11T08:17:08.388Z,19.57
2023-02-11T08:19:35.315Z,20.83
2023-02-11T08:22:02.857Z,21.30
2023-02-11T08:24:29.362Z,20.43
2023-02-11T08:26:56.106Z,20.93
2023-02-11T08:29:22.792Z,20.63
2023-02-11T08:31:49.844Z,21.33
2023-02-11T08:34:19.235Z,22.63
2023-02-11T08:36:47.358Z,20.53
2023-02-11T08:39:20.055Z,22.90
2023-02-11T08:41:49.189Z,23.40
2023-02-11T08:44:17.892Z,22.97
2023-02-11T08:46:44.467Z,21.70
2023-02-11T08:49:11.135Z,23.70
2023-02-11T08:51:37.821Z,24.17
2023-02-11T08:54:04.565Z,23.67
2023-02-11T08:56:33.182Z,23.37
2023-02-11T08:58:59.792Z,22.50
2023-02-11T09:01:29.191Z,22.60
2023-02-11T09:03:56.969Z,23.03
2023-02-11T09:06:26.533Z,24.07
2023-02-11T09:08:55.703Z,23.17
2023-02-11T09:11:26.919Z,23.43
2023-02-11T09:13:54.597Z,25.37
2023-02-11T09:16:25.506Z,24.60
2023-02-11T09:18:52.719Z,24.43
2023-02-11T09:21:20.114Z,24.50
2023-02-11T09:23:48.053Z,23.70
2023-02-11T09:26:19.361Z,25.87
2023-02-11T09:28:47.074Z,25.33
2023-02-11T09:31:16.780Z,25.40
2023-02-11T09:33:48.188Z,23.23
2023-02-11T09:36:23.664Z,24.17
2023-02-11T09:38:51.007Z,24.60
2023-02-11T09:41:52.711Z,24.20
2023-02-11T09:44:34.105Z,25.07
2023-02-11T09:47:24.247Z,22.83
2023-02-11T09:49:53.925Z,24.60
2023-02-11T09:52:45.834Z,23.70
2023-02-11T09:55:21.289Z,23.83
2023-02-11T09:57:48.074Z,23.13
2023-02-11T10:00:24.052Z,23.93
2023-02-11T10:03:14.490Z,23.73
2023-02-11T10:06:05.481Z,24.60
2023-02-11T10:08:58.642Z,25.33
2023-02-11T10:11:34.460Z,24.50
2023-02-11T10:14:25.859Z,24.77
2023-02-11T10:17:21.186Z,24.83
2023-02-11T10:20:21.036Z,24.60
2023-02-11T10:22:52.692Z,23.83
2023-02-11T10:25:27.047Z,26.70
2023-02-11T10:27:57.577Z,25.90
2023-02-11T10:30:27.460Z,24.40
2023-02-11T10:33:02.988Z,24.77
2023-02-11T10:35:29.676Z,24.67
2023-02-11T10:37:56.387Z,25.50
2023-02-11T10:40:26.126Z,23.80
2023-02-11T10:42:59.671Z,26.73
2023-02-11T10:45:40.149Z,26.13
2023-02-11T10:48:38.045Z,25.17
2023-02-11T10:51:28.393Z,27.43
2023-02-11T10:54:04.312Z,27.27
2023-02-11T10:56:58.470Z,25.77
2023-02-11T10:59:31.450Z,26.73
2023-02-11T11:02:06.120Z,25.50
2023-02-11T11:04:33.774Z,27.57
2023-02-11T11:07:11.042Z,26.33
2023-02-11T11:10:05.861Z,26.63
2023-02-11T11:12:48.929Z,25.50
2023-02-11T11:15:24.906Z,25.80
2023-02-11T11:18:20.813Z,27.07
2023-02-11T11:21:01.019Z,27.47
2023-02-11T11:23:30.484Z,26.93
2023-02-11T11:26:06.532Z,27.13
2023-02-11T11:28:59.098Z,26.70
2023-02-11T11:31:36.814Z,27.03
2023-02-11T11:34:28.110Z,28.03
2023-02-11T11:36:57.476Z,26.47
2023-02-11T11:39:31.380Z,29.30
2023-02-11T11:41:59.449Z,27.00
2023-02-11T11:44:36.764Z,28.37
2023-02-11T11:47:12.487Z,27.33
2023-02-11T11:49:50.264Z,27.23
2023-02-11T11:52:28.072Z,27.07
2023-02-11T11:55:21.562Z,27.90
2023-02-11T11:57:48.936Z,27.87
2023-02-11T12:00:23.052Z,28.67
2023-02-11T12:03:37.467Z,27.47
2023-02-11T12:06:07.174Z,27.77
2023-02-11T12:08:52.487Z,29.53
2023-02-11T12:11:36.663Z,29.33
2023-02-11T12:14:24.562Z,28.07
2023-02-11T12:17:01.678Z,29.93
2023-02-11T12:19:40.343Z,28.10
2023-02-11T12:22:35.854Z,29.37
2023-02-11T12:25:28.859Z,27.37
2023-02-11T12:28:11.061Z,28.53
2023-02-11T12:30:55.808Z,28.00
2023-02-11T12:33:49.665Z,29.07
2023-02-11T12:36:47.452Z,29.83
2023-02-11T12:39:16.936Z,29.57
2023-02-11T12:42:02.842Z,28.27
2023-02-11T12:45:16.030Z,29.13
2023-02-11T12:48:14.156Z,29.17
2023-02-11T12:50:52.947Z,29.00
2023-02-11T12:53:26.826Z,28.87
2023-02-11T12:56:01.069Z,28.07
2023-02-11T12:58:44.053Z,29.13
2023-02-11T13:01:20.372Z,29.13
2023-02-11T13:03:59.058Z,29.23
2023-02-11T13:06:34.731Z,28.83
2023-02-11T13:09:04.697Z,28.30
2023-02-11T13:11:43.184Z,29.80
2023-02-11T13:14:15.663Z,30.23
2023-02-11T13:16:45.738Z,29.90
2023-02-11T13:19:37.306Z,32.00
2023-02-11T13:22:39.300Z,30.30
2023-02-11T13:25:30.795Z,30.80
2023-02-11T13:28:09.678Z,31.77
2023-02-11T13:30:41.039Z,32.17
2023-02-11T13:33:20.002Z,31.27
2023-02-11T13:36:06.823Z,31.57
2023-02-11T13:38:33.700Z,31.23
2023-02-11T13:41:23.129Z,29.57
2023-02-11T13:44:22.304Z,31.57
2023-02-11T13:46:53.967Z,30.17
2023-02-11T13:49:36.969Z,31.57
2023-02-11T13:52:16.447Z,30.27
2023-02-11T13:54:50.123Z,31.40
2023-02-11T13:57:19.425Z,29.53
2023-02-11T13:59:52.266Z,31.00
2023-02-11T14:02:41.754Z,31.13
2023-02-11T14:05:28.527Z,30.47
2023-02-11T14:08:29.071Z,29.47
2023-02-11T14:10:58.596Z,29.10
2023-02-11T14:13:31.892Z,29.73
2023-02-11T14:16:17.212Z,31.40
2023-02-11T14:18:49.162Z,29.23
2023-02-11T14:21:35.626Z,30.97
2023-02-11T14:24:02.133Z,31.57
2023-02-11T14:26:35.793Z,32.70
2023-02-11T14:29:14.380Z,32.73
2023-02-11T14:31:49.286Z,31.07
2023-02-11T14:34:33.472Z,33.67
2023-02-11T14:37:26.970Z,32.70
2023-02-11T14:40:00.481Z,39.37
2023-02-11T14:42:29.548Z,40.00
2023-02-11T14:45:03.294Z,41.13
2023-02-11T14:47:46.837Z,34.23
2023-02-11T14:50:27.534Z,32.93
2023-02-11T14:52:55.294Z,29.50
2023-02-11T14:55:42.079Z,29.23
2023-02-11T14:58:19.117Z,30.77
2023-02-11T15:00:53.183Z,31.20
2023-02-11T15:03:34.156Z,31.10
2023-02-11T15:06:05.407Z,30.40
2023-02-11T15:08:34.608Z,30.60
2023-02-11T15:11:03.740Z,29.13
2023-02-11T15:13:32.762Z,31.43
2023-02-11T15:16:08.030Z,29.87
2023-02-11T15:18:39.279Z,31.33
2023-02-11T15:21:06.485Z,32.17
2023-02-11T15:23:33.381Z,31.63
2023-02-11T15:26:04.653Z,30.90
2023-02-11T15:28:35.464Z,32.03
2023-02-11T15:31:05.522Z,32.07
2023-02-11T15:33:32.929Z,31.43
2023-02-11T15:36:00.737Z,34.03
2023-02-11T15:38:28.058Z,33.93
2023-02-11T15:41:01.136Z,31.27
2023-02-11T15:44:00.323Z,35.23
2023-02-11T15:46:38.248Z,35.47
2023-02-11T15:49:06.583Z,35.60
2023-02-11T15:51:36.072Z,34.77
2023-02-11T15:54:07.002Z,35.90
2023-02-11T15:56:43.434Z,34.90
2023-02-11T15:59:35.339Z,35.77
2023-02-11T16:02:21.963Z,31.40
2023-02-11T16:04:54.315Z,32.70
2023-02-11T16:07:49.930Z,31.47
2023-02-11T16:10:17.702Z,29.40
2023-02-11T16:12:57.959Z,29.87
2023-02-11T16:15:33.343Z,29.93
2023-02-11T16:18:12.982Z,32.53
2023-02-11T16:20:47.859Z,31.33
2023-02-11T16:23:21.867Z,34.33
2023-02-11T16:25:51.614Z,31.33
2023-02-11T16:28:18.167Z,31.57
2023-02-11T16:30:44.907Z,32.30
2023-02-11T16:33:11.786Z,32.50
2023-02-11T16:35:40.824Z,33.17
2023-02-11T16:38:07.343Z,34.03
2023-02-11T16:40:33.902Z,32.40
2023-02-11T16:43:02.421Z,34.17
2023-02-11T16:45:28.931Z,38.57
2023-02-11T16:47:55.534Z,35.43
2023-02-11T16:50:24.210Z,34.63
2023-02-11T16:52:53.957Z,33.27
2023-02-11T16:55:21.943Z,33.00
2023-02-11T16:57:51.553Z,35.60
2023-02-11T17:00:18.477Z,35.17
2023-02-11T17:02:45.065Z,34.47
2023-02-11T17:05:19.109Z,38.60
2023-02-11T17:07:46.183Z,36.87
2023-02-11T17:10:22.624Z,38.27
2023-02-11T17:12:50.000Z,35.73
2023-02-11T17:15:16.816Z,33.63
2023-02-11T17:17:43.582Z,35.63
2023-02-11T17:20:12.724Z,35.10
2023-02-11T17:22:39.250Z,32.70
2023-02-11T17:25:06.688Z,35.27
2023-02-11T17:27:33.419Z,35.23
2023-02-11T17:30:00.370Z,34.93
2023-02-11T17:32:26.995Z,35.37
2023-02-11T17:34:56.302Z,35.53
2023-02-11T17:37:23.357Z,36.90
2023-02-11T17:39:50.943Z,36.13
2023-02-11T17:42:19.288Z,35.47
2023-02-11T17:44:45.883Z,38.57
2023-02-11T17:47:12.861Z,37.67
2023-02-11T17:49:39.957Z,40.43
2023-02-11T17:52:06.591Z,39.43
2023-02-11T17:54:33.200Z,39.77
2023-02-11T17:56:59.696Z,37.07
2023-02-11T17:59:26.587Z,39.10
2023-02-11T18:01:53.132Z,38.10
2023-02-11T18:04:20.315Z,37.27
2023-02-11T18:06:47.451Z,36.53
2023-02-11T18:09:13.956Z,35.17
2023-02-11T18:11:41.221Z,36.00
2023-02-11T18:14:08.541Z,36.30
2023-02-11T18:16:38.736Z,35.93
2023-02-11T18:19:07.726Z,35.20
2023-02-11T18:21:34.425Z,36.40
2023-02-11T18:24:05.967Z,38.60
2023-02-11T18:26:33.202Z,38.37
2023-02-11T18:29:00.554Z,38.13
2023-02-11T18:31:27.695Z,36.07
2023-02-11T18:33:54.431Z,37.37
2023-02-11T18:36:22.361Z,37.17
2023-02-11T18:38:49.136Z,37.17
2023-02-11T18:41:15.947Z,35.77
2023-02-11T18:43:43.116Z,35.67
2023-02-11T18:46:12.631Z,36.43
2023-02-11T18:48:40.487Z,37.30
2023-02-11T18:51:15.117Z,37.10
2023-02-11T18:53:42.871Z,36.30
2023-02-11T18:56:15.366Z,36.67
2023-02-11T18:58:42.155Z,39.67
2023-02-11T19:01:13.400Z,38.90
2023-02-11T19:03:40.139Z,37.43
2023-02-11T19:06:07.422Z,38.07
2023-02-11T19:08:33.974Z,35.87
2023-02-11T19:11:00.518Z,36.60
2023-02-11T19:13:29.642Z,36.90
2023-02-11T19:15:56.203Z,36.73
2023-02-11T19:18:22.779Z,35.80
2023-02-11T19:20:49.432Z,36.47
2023-02-11T19:23:15.922Z,38.10
2023-02-11T19:25:47.291Z,37.67
2023-02-11T19:28:14.415Z,37.07
2023-02-11T19:30:41.590Z,36.90
2023-02-11T19:33:10.197Z,39.60
2023-02-11T19:35:36.951Z,38.87
2023-02-11T19:38:06.339Z,40.20
2023-02-11T19:40:32.948Z,38.53
2023-02-11T19:42:59.503Z,38.10
2023-02-11T19:45:26.961Z,39.17
2023-02-11T19:47:56.822Z,39.83
2023-02-11T19:50:23.750Z,41.03
2023-02-11T19:52:50.291Z,41.23
2023-02-11T19:55:16.797Z,38.27
2023-02-11T19:57:43.391Z,39.57
2023-02-11T20:00:11.225Z,39.43
2023-02-11T20:02:39.122Z,40.17
2023-02-11T20:05:06.264Z,39.23
2023-02-11T20:07:32.812Z,39.73
2023-02-11T20:09:59.989Z,38.93
2023-02-11T20:12:26.512Z,37.77
2023-02-11T20:14:52.995Z,38.43
2023-02-11T20:17:19.519Z,38.30
2023-02-11T20:19:46.061Z,36.90
2023-02-11T20:22:12.559Z,38.33
2023-02-11T20:24:39.218Z,39.70
2023-02-11T20:27:08.423Z,39.80
2023-02-11T20:29:37.729Z,40.13
2023-02-11T20:32:05.501Z,40.87
2023-02-11T20:34:32.797Z,38.83
2023-02-11T20:36:59.782Z,38.70
2023-02-11T20:39:26.906Z,39.17
2023-02-11T20:41:54.587Z,37.70
2023-02-11T20:44:24.326Z,37.70
2023-02-11T20:46:51.676Z,39.43
2023-02-11T20:49:21.674Z,40.33
2023-02-11T20:51:49.169Z,39.97
2023-02-11T20:54:17.958Z,37.97
2023-02-11T20:56:47.796Z,38.53
2023-02-11T20:59:15.246Z,39.00
2023-02-11T21:01:44.090Z,38.43
2023-02-11T21:04:13.918Z,38.50
2023-02-11T21:06:43.751Z,37.00
2023-02-11T21:09:13.821Z,40.00
2023-02-11T21:11:41.028Z,38.97
2023-02-11T21:14:07.880Z,38.07
2023-02-11T21:16:34.466Z,40.03
2023-02-11T21:19:01.407Z,39.50
2023-02-11T21:21:27.941Z,39.33
2023-02-11T21:23:56.173Z,39.00
2023-02-11T21:26:23.187Z,38.57
2023-02-11T21:28:50.137Z,38.57
2023-02-11T21:31:20.725Z,39.30
2023-02-11T21:33:50.494Z,37.27
2023-02-11T21:36:17.952Z,38.57
2023-02-11T21:38:44.994Z,37.80
2023-02-11T21:41:12.226Z,40.70
2023-02-11T21:43:38.893Z,38.57
2023-02-11T21:46:15.558Z,38.13
2023-02-11T21:48:42.823Z,39.17
2023-02-11T21:51:13.287Z,40.23
2023-02-11T21:53:39.794Z,39.67
2023-02-11T21:56:08.741Z,37.87
2023-02-11T21:58:35.970Z,39.50
2023-02-11T22:01:09.625Z,37.87
2023-02-11T22:03:36.200Z,39.63
2023-02-11T22:06:09.571Z,37.70
2023-02-11T22:08:36.224Z,38.83
2023-02-11T22:11:07.680Z,37.17
2023-02-11T22:13:34.819Z,38.67
2023-02-11T22:16:04.055Z,36.93
2023-02-11T22:18:30.688Z,39.60
2023-02-11T22:21:03.245Z,40.77
2023-02-11T22:23:30.009Z,39.33
2023-02-11T22:25:57.567Z,39.53
2023-02-11T22:28:28.193Z,40.40
2023-02-11T22:30:59.144Z,37.90
2023-02-11T22:33:27.068Z,38.63
2023-02-11T22:36:18.702Z,38.07
2023-02-11T22:38:45.407Z,37.73
2023-02-11T22:41:12.545Z,39.67
2023-02-11T22:43:42.906Z,39.93
2023-02-11T22:46:12.426Z,38.47
2023-02-11T22:48:39.040Z,39.80
2023-02-11T22:51:18.090Z,39.27
2023-02-11T22:53:44.809Z,38.87
2023-02-11T22:56:16.244Z,37.53
2023-02-11T22:58:43.204Z,37.80
2023-02-11T23:01:17.341Z,40.10
2023-02-11T23:03:49.451Z,36.63
2023-02-11T23:06:16.543Z,41.37
2023-02-11T23:08:44.140Z,38.40
2023-02-11T23:11:17.570Z,37.77
2023-02-11T23:13:47.218Z,37.73
2023-02-11T23:16:16.730Z,39.63
2023-02-11T23:18:51.541Z,39.90
2023-02-11T23:21:22.356Z,37.87
2023-02-11T23:23:53.405Z,38.17
2023-02-11T23:26:20.024Z,40.10
2023-02-11T23:28:47.381Z,39.70
2023-02-11T23:31:21.189Z,37.53
2023-02-11T23:33:50.856Z,37.60
2023-02-11T23:36:19.472Z,39.20
2023-02-11T23:38:46.753Z,36.43
2023-02-11T23:41:14.083Z,35.70
2023-02-11T23:43:41.376Z,37.80
2023-02-11T23:46:08.887Z,37.30
2023-02-11T23:48:40.639Z,37.67
2023-02-11T23:51:09.726Z,37.63
2023-02-11T23:53:38.055Z,36.07
2023-02-11T23:56:15.697Z,36.30
2023-02-11T23:58:42.404Z,37.20
